Time;durP1;ratioP1;P1;durP2;ratioP2;P2;SDS_P1;SDS_P2;PMS_P1;PMS_P2;Temp;Humidity;BMP_temperature;BMP_pressure;BME280_temperature;BME280_humidity;BME280_pressure;Samples;Min_cycle;Max_cycle;Signal;HPM_P1;HPM_P2
2021/08/10 00:01:58;;;;;;;;;6.00;4.33;;;;;;;;5076556;27;50997;-67
2021/08/10 00:04:24;;;;;;;;;3.25;2.75;;;;;;;;5075415;27;51781;-67
2021/08/10 00:06:49;;;;;;;;;5.00;4.00;;;;;;;;5075856;27;51012;-67
2021/08/10 00:09:14;;;;;;;;;8.33;8.33;;;;;;;;5076157;28;51104;-66
2021/08/10 00:11:39;;;;;;;;;5.67;5.67;;;;;;;;5076304;27;51410;-67
2021/08/10 00:14:04;;;;;;;;;5.00;5.00;;;;;;;;5075490;27;52151;-67
2021/08/10 00:16:30;;;;;;;;;5.67;5.00;;;;;;;;5076078;28;50981;-66
2021/08/10 00:18:55;;;;;;;;;6.67;6.33;;;;;;;;5075546;27;51175;-67
2021/08/10 00:21:20;;;;;;;;;6.00;5.00;;;;;;;;5075038;28;51933;-67
2021/08/10 00:23:45;;;;;;;;;5.00;4.00;;;;;;;;5075443;27;51035;-67
2021/08/10 00:26:12;;;;;;;;;4.00;4.00;;;;;;;;5075966;27;51017;-66
2021/08/10 00:28:37;;;;;;;;;6.00;6.00;;;;;;;;5075910;27;51042;-67
2021/08/10 00:31:02;;;;;;;;;5.00;5.00;;;;;;;;5076075;27;51182;-67
2021/08/10 00:33:27;;;;;;;;;7.33;7.00;;;;;;;;5075202;27;51108;-65
2021/08/10 00:35:53;;;;;;;;;5.00;5.00;;;;;;;;5076099;27;50994;-66
2021/08/10 00:38:18;;;;;;;;;5.33;5.00;;;;;;;;5075688;27;51112;-66
2021/08/10 00:40:43;;;;;;;;;4.33;4.33;;;;;;;;5075987;27;51061;-66
2021/08/10 00:43:26;;;;;;;;;5.67;5.67;;;;;;;;5075143;28;51050;-66
2021/08/10 00:45:52;;;;;;;;;5.00;5.00;;;;;;;;5075156;27;50875;-67
2021/08/10 00:48:19;;;;;;;;;7.00;7.00;;;;;;;;5074811;27;51011;-67
2021/08/10 00:50:44;;;;;;;;;6.00;6.00;;;;;;;;5075796;27;50851;-67
2021/08/10 00:53:09;;;;;;;;;7.00;5.00;;;;;;;;5075014;27;51166;-66
2021/08/10 00:55:34;;;;;;;;;6.67;6.00;;;;;;;;5075624;27;50905;-67
2021/08/10 00:58:00;;;;;;;;;7.00;6.00;;;;;;;;5075679;27;50986;-67
2021/08/10 01:00:25;;;;;;;;;5.67;5.67;;;;;;;;5075548;27;50902;-67
2021/08/10 01:02:50;;;;;;;;;4.00;4.00;;;;;;;;5074926;27;51059;-66
2021/08/10 01:05:15;;;;;;;;;7.67;6.67;;;;;;;;5067526;27;51066;-66
2021/08/10 01:07:46;;;;;;;;;4.33;4.33;;;;;;;;5062343;27;51218;-67
2021/08/10 01:10:22;;;;;;;;;5.67;5.33;;;;;;;;5075567;27;50911;-67
2021/08/10 01:12:50;;;;;;;;;7.00;5.00;;;;;;;;5074818;27;50924;-67
2021/08/10 01:15:17;;;;;;;;;5.00;5.00;;;;;;;;5074868;27;51112;-67
2021/08/10 01:17:54;;;;;;;;;5.00;5.00;;;;;;;;5075292;27;51092;-67
2021/08/10 01:20:38;;;;;;;;;7.00;6.00;;;;;;;;5074755;27;51371;-68
2021/08/10 01:23:05;;;;;;;;;6.00;6.00;;;;;;;;5074640;28;51140;-67
2021/08/10 01:25:36;;;;;;;;;5.33;5.33;;;;;;;;5074808;27;51126;-66
2021/08/10 01:28:19;;;;;;;;;6.00;5.67;;;;;;;;5073676;28;51124;-67
2021/08/10 01:30:57;;;;;;;;;5.67;5.67;;;;;;;;5074976;27;50958;-67
2021/08/10 01:33:22;;;;;;;;;7.67;6.67;;;;;;;;5074195;28;52046;-67
2021/08/10 01:35:48;;;;;;;;;5.00;5.00;;;;;;;;5075003;27;50998;-67
2021/08/10 01:38:15;;;;;;;;;5.00;5.00;;;;;;;;5074657;27;51054;-68
2021/08/10 01:40:40;;;;;;;;;6.00;5.67;;;;;;;;5075030;27;51036;-68
2021/08/10 01:43:06;;;;;;;;;5.00;5.00;;;;;;;;5074232;27;52385;-68
2021/08/10 01:45:37;;;;;;;;;8.67;7.33;;;;;;;;5074930;27;51005;-67
2021/08/10 01:48:04;;;;;;;;;5.00;5.00;;;;;;;;5074585;27;51152;-67
2021/08/10 01:50:29;;;;;;;;;5.00;5.00;;;;;;;;5074727;27;51084;-67
2021/08/10 01:52:54;;;;;;;;;7.00;6.00;;;;;;;;5074136;28;51060;-67
2021/08/10 01:55:20;;;;;;;;;6.00;5.33;;;;;;;;5073262;28;50985;-67
2021/08/10 01:57:45;;;;;;;;;6.00;5.00;;;;;;;;5074450;27;50921;-67
2021/08/10 02:00:11;;;;;;;;;6.00;6.00;;;;;;;;5074857;27;51072;-68
2021/08/10 02:02:36;;;;;;;;;6.33;6.00;;;;;;;;5074082;28;51249;-67
2021/08/10 02:05:02;;;;;;;;;7.33;7.00;;;;;;;;5073896;28;50961;-67
2021/08/10 02:07:27;;;;;;;;;8.33;7.33;;;;;;;;5074050;27;51172;-67
2021/08/10 02:09:53;;;;;;;;;7.00;6.00;;;;;;;;5074712;27;51045;-67
2021/08/10 02:12:19;;;;;;;;;6.00;5.00;;;;;;;;5073946;27;52050;-67
2021/08/10 02:14:45;;;;;;;;;8.00;7.33;;;;;;;;5074135;27;51982;-67
2021/08/10 02:17:13;;;;;;;;;6.00;6.00;;;;;;;;5072960;27;51284;-66
2021/08/10 02:19:38;;;;;;;;;5.67;5.67;;;;;;;;5074068;27;51239;-68
2021/08/10 02:22:05;;;;;;;;;7.00;7.00;;;;;;;;5073658;27;52094;-67
2021/08/10 02:24:34;;;;;;;;;7.67;7.67;;;;;;;;5073979;28;51146;-67
2021/08/10 02:27:02;;;;;;;;;8.00;8.00;;;;;;;;5072558;28;51116;-67
2021/08/10 02:29:30;;;;;;;;;7.67;7.00;;;;;;;;5074714;27;51238;-68
2021/08/10 02:31:55;;;;;;;;;6.33;5.67;;;;;;;;5073920;27;51206;-68
2021/08/10 02:34:21;;;;;;;;;5.00;5.00;;;;;;;;5073491;27;50926;-65
2021/08/10 02:36:49;;;;;;;;;5.00;5.00;;;;;;;;5073522;27;50936;-66
2021/08/10 02:39:14;;;;;;;;;7.00;7.00;;;;;;;;5074604;27;51449;-66
2021/08/10 02:41:41;;;;;;;;;6.67;6.00;;;;;;;;5074589;28;51877;-68
2021/08/10 02:44:08;;;;;;;;;4.33;4.33;;;;;;;;5073721;27;51057;-68
2021/08/10 02:46:34;;;;;;;;;5.67;5.00;;;;;;;;5073788;27;50958;-68
2021/08/10 02:48:59;;;;;;;;;5.00;4.67;;;;;;;;5073567;27;51335;-65
2021/08/10 02:51:25;;;;;;;;;6.00;6.00;;;;;;;;5073477;27;51724;-67
2021/08/10 02:53:50;;;;;;;;;5.33;4.00;;;;;;;;5073602;27;50971;-66
2021/08/10 02:56:18;;;;;;;;;6.00;5.00;;;;;;;;5073702;28;50996;-67
2021/08/10 02:58:46;;;;;;;;;5.33;5.00;;;;;;;;5073856;27;50898;-66
2021/08/10 03:01:13;;;;;;;;;8.33;6.67;;;;;;;;5073068;27;51326;-67
2021/08/10 03:03:39;;;;;;;;;5.67;5.33;;;;;;;;5073165;27;51093;-67
2021/08/10 03:06:05;;;;;;;;;5.00;5.00;;;;;;;;5073227;27;51091;-66
2021/08/10 03:08:35;;;;;;;;;10.33;9.67;;;;;;;;5070141;27;51407;-67
2021/08/10 03:11:01;;;;;;;;;4.67;4.67;;;;;;;;5072885;27;51232;-67
2021/08/10 03:13:29;;;;;;;;;7.33;6.33;;;;;;;;5073295;27;51041;-67
2021/08/10 03:15:56;;;;;;;;;7.67;7.33;;;;;;;;5073108;27;50920;-66
2021/08/10 03:18:25;;;;;;;;;5.67;5.33;;;;;;;;5073281;27;50999;-68
2021/08/10 03:20:56;;;;;;;;;6.67;6.00;;;;;;;;5072792;27;52121;-68
2021/08/10 03:23:22;;;;;;;;;4.67;4.67;;;;;;;;5073017;27;51185;-68
2021/08/10 03:25:48;;;;;;;;;7.33;6.00;;;;;;;;5073128;27;51107;-69
2021/08/10 03:28:14;;;;;;;;;5.33;5.33;;;;;;;;5073176;27;51025;-68
2021/08/10 03:30:40;;;;;;;;;6.00;5.67;;;;;;;;5072655;27;51786;-68
2021/08/10 03:33:05;;;;;;;;;10.25;9.50;;;;;;;;5072319;27;51168;-68
2021/08/10 03:35:31;;;;;;;;;5.67;5.67;;;;;;;;5073190;27;51235;-68
2021/08/10 03:37:56;;;;;;;;;7.00;6.67;;;;;;;;5073129;27;51239;-68
2021/08/10 03:40:22;;;;;;;;;5.00;5.00;;;;;;;;5072990;28;51232;-67
2021/08/10 03:42:48;;;;;;;;;6.67;6.67;;;;;;;;5072791;27;50987;-68
2021/08/10 03:45:14;;;;;;;;;8.33;8.00;;;;;;;;5073187;27;51001;-67
2021/08/10 03:47:39;;;;;;;;;3.00;3.00;;;;;;;;5073041;27;51290;-68
2021/08/10 03:50:05;;;;;;;;;5.67;5.67;;;;;;;;5072551;28;52398;-67
2021/08/10 03:52:31;;;;;;;;;6.67;6.67;;;;;;;;5072808;27;51007;-67
2021/08/10 03:54:56;;;;;;;;;6.00;6.00;;;;;;;;5072816;27;50796;-67
2021/08/10 03:57:21;;;;;;;;;7.00;6.00;;;;;;;;5073001;27;50817;-67
2021/08/10 03:59:52;;;;;;;;;7.33;6.67;;;;;;;;5072618;27;51053;-67
2021/08/10 04:02:18;;;;;;;;;7.33;7.33;;;;;;;;5072701;27;51073;-68
2021/08/10 04:04:45;;;;;;;;;6.33;6.33;;;;;;;;5072269;27;50942;-68
2021/08/10 04:07:10;;;;;;;;;8.33;8.33;;;;;;;;5072762;27;51343;-69
2021/08/10 04:09:38;;;;;;;;;7.00;6.33;;;;;;;;5072088;27;50943;-67
2021/08/10 04:12:04;;;;;;;;;6.33;6.33;;;;;;;;5072460;27;50926;-67
2021/08/10 04:14:30;;;;;;;;;8.33;8.33;;;;;;;;5072498;27;51081;-67
2021/08/10 04:16:58;;;;;;;;;8.00;7.00;;;;;;;;5072516;27;51319;-66
2021/08/10 04:19:27;;;;;;;;;7.00;7.00;;;;;;;;5072151;27;51190;-67
2021/08/10 04:21:53;;;;;;;;;6.33;6.00;;;;;;;;5072405;27;50996;-66
2021/08/10 04:24:18;;;;;;;;;7.00;7.00;;;;;;;;5072391;27;50928;-67
2021/08/10 04:26:43;;;;;;;;;5.67;5.00;;;;;;;;5072835;27;51351;-67
2021/08/10 04:29:08;;;;;;;;;9.33;7.67;;;;;;;;5072809;27;52281;-67
2021/08/10 04:31:34;;;;;;;;;6.00;5.67;;;;;;;;5072934;28;50971;-67
2021/08/10 04:33:59;;;;;;;;;7.33;6.33;;;;;;;;5073100;27;50902;-67
2021/08/10 04:36:24;;;;;;;;;8.33;7.33;;;;;;;;5072566;27;51287;-66
2021/08/10 04:38:49;;;;;;;;;8.33;7.67;;;;;;;;5072360;27;51299;-67
2021/08/10 04:41:14;;;;;;;;;6.00;6.00;;;;;;;;5075516;27;51053;-67
2021/08/10 04:43:40;;;;;;;;;7.67;7.67;;;;;;;;5075653;27;51167;-67
2021/08/10 04:46:05;;;;;;;;;12.00;8.33;;;;;;;;5075622;27;51196;-68
2021/08/10 04:48:30;;;;;;;;;10.33;8.33;;;;;;;;5074925;27;52238;-66
2021/08/10 04:50:55;;;;;;;;;11.00;9.33;;;;;;;;5075582;27;51124;-66
2021/08/10 04:53:20;;;;;;;;;10.00;9.00;;;;;;;;5075622;27;51346;-69
2021/08/10 04:55:46;;;;;;;;;10.33;8.67;;;;;;;;5075579;27;51142;-66
2021/08/10 04:58:11;;;;;;;;;9.00;9.00;;;;;;;;5075041;27;51748;-67
2021/08/10 05:00:36;;;;;;;;;7.67;6.00;;;;;;;;5075409;27;51171;-66
2021/08/10 05:03:01;;;;;;;;;9.00;8.33;;;;;;;;5074781;27;51354;-67
2021/08/10 05:05:27;;;;;;;;;8.00;7.00;;;;;;;;5075276;27;51111;-68
2021/08/10 05:07:52;;;;;;;;;7.00;6.67;;;;;;;;5072692;27;52435;-68
2021/08/10 05:10:17;;;;;;;;;9.00;7.00;;;;;;;;5067190;27;50953;-66
2021/08/10 05:12:42;;;;;;;;;9.33;8.33;;;;;;;;5075195;27;51255;-67
2021/08/10 05:15:08;;;;;;;;;7.33;7.33;;;;;;;;5075327;27;51270;-67
2021/08/10 05:17:33;;;;;;;;;8.33;7.67;;;;;;;;5074751;27;52074;-68
2021/08/10 05:19:58;;;;;;;;;7.00;6.67;;;;;;;;5074686;28;51036;-68
2021/08/10 05:22:25;;;;;;;;;8.67;7.00;;;;;;;;5075013;27;51251;-67
2021/08/10 05:24:50;;;;;;;;;8.67;8.33;;;;;;;;5075126;27;51308;-67
2021/08/10 05:27:15;;;;;;;;;7.00;7.00;;;;;;;;5074700;27;51900;-67
2021/08/10 05:29:40;;;;;;;;;7.33;7.33;;;;;;;;5074794;27;51018;-68
2021/08/10 05:32:06;;;;;;;;;13.00;11.00;;;;;;;;5074800;27;51273;-68
2021/08/10 05:34:31;;;;;;;;;10.00;9.00;;;;;;;;5074865;27;50840;-67
2021/08/10 05:36:56;;;;;;;;;8.67;8.67;;;;;;;;5074213;27;51075;-68
2021/08/10 05:39:21;;;;;;;;;8.33;8.33;;;;;;;;5074947;27;50922;-67
2021/08/10 05:41:46;;;;;;;;;8.33;6.67;;;;;;;;5074708;27;51073;-67
2021/08/10 05:44:13;;;;;;;;;6.67;6.67;;;;;;;;5074759;27;51098;-67
2021/08/10 05:46:39;;;;;;;;;9.33;9.00;;;;;;;;5074161;27;51163;-66
2021/08/10 05:49:04;;;;;;;;;9.67;8.67;;;;;;;;5074087;27;50932;-68
2021/08/10 05:51:29;;;;;;;;;8.00;7.00;;;;;;;;5074424;27;51334;-67
2021/08/10 05:53:54;;;;;;;;;9.33;8.67;;;;;;;;5074538;27;51316;-67
2021/08/10 05:56:20;;;;;;;;;7.00;6.33;;;;;;;;5072715;28;52081;-68
2021/08/10 05:58:45;;;;;;;;;8.33;7.67;;;;;;;;5074405;27;50993;-68
2021/08/10 06:01:10;;;;;;;;;7.00;7.00;;;;;;;;5074028;27;51062;-67
2021/08/10 06:03:35;;;;;;;;;9.33;7.33;;;;;;;;5074169;27;51296;-68
2021/08/10 06:06:01;;;;;;;;;8.00;7.67;;;;;;;;5072525;28;52827;-67
2021/08/10 06:08:27;;;;;;;;;7.67;7.00;;;;;;;;5074123;27;51232;-68
2021/08/10 06:10:52;;;;;;;;;13.67;9.00;;;;;;;;5073791;27;51006;-67
2021/08/10 06:13:18;;;;;;;;;7.33;7.33;;;;;;;;5074160;27;51173;-67
2021/08/10 06:15:43;;;;;;;;;6.33;6.33;;;;;;;;5073789;27;51155;-68
2021/08/10 06:18:08;;;;;;;;;7.33;7.33;;;;;;;;5073925;28;51069;-67
2021/08/10 06:20:33;;;;;;;;;7.67;7.33;;;;;;;;5073961;27;50964;-67
2021/08/10 06:23:01;;;;;;;;;9.00;9.00;;;;;;;;5072769;28;51394;-67
2021/08/10 06:25:26;;;;;;;;;7.67;7.67;;;;;;;;5073150;27;51116;-67
2021/08/10 06:27:51;;;;;;;;;9.33;8.33;;;;;;;;5073637;27;50882;-67
2021/08/10 06:30:16;;;;;;;;;8.33;8.00;;;;;;;;5073707;27;50924;-67
2021/08/10 06:32:42;;;;;;;;;7.00;7.00;;;;;;;;5073904;27;50945;-67
2021/08/10 06:35:07;;;;;;;;;11.67;10.33;;;;;;;;5072783;28;50898;-67
2021/08/10 06:37:32;;;;;;;;;7.00;7.00;;;;;;;;5073695;27;51033;-67
2021/08/10 06:39:57;;;;;;;;;9.00;9.00;;;;;;;;5073459;27;50862;-67
2021/08/10 06:42:23;;;;;;;;;11.33;9.67;;;;;;;;5073590;27;51198;-66
2021/08/10 06:44:48;;;;;;;;;11.33;11.33;;;;;;;;5072821;27;52051;-68
2021/08/10 06:47:14;;;;;;;;;7.00;7.00;;;;;;;;5073320;27;50856;-67
2021/08/10 06:49:39;;;;;;;;;11.00;9.67;;;;;;;;5072922;27;51101;-66
2021/08/10 06:52:05;;;;;;;;;7.00;7.00;;;;;;;;5073298;27;50911;-67
2021/08/10 06:54:31;;;;;;;;;8.00;7.33;;;;;;;;5072633;27;51279;-67
2021/08/10 06:56:56;;;;;;;;;9.00;9.00;;;;;;;;5073078;27;51008;-67
2021/08/10 06:59:21;;;;;;;;;11.67;11.67;;;;;;;;5072910;27;51098;-66
2021/08/10 07:01:46;;;;;;;;;11.00;11.00;;;;;;;;5072960;27;50890;-67
2021/08/10 07:04:11;;;;;;;;;9.00;9.00;;;;;;;;5072274;27;53063;-67
2021/08/10 07:06:37;;;;;;;;;11.33;10.00;;;;;;;;5072886;28;50981;-67
2021/08/10 07:09:05;;;;;;;;;9.00;9.00;;;;;;;;5069228;27;51243;-67
2021/08/10 07:11:30;;;;;;;;;10.00;8.67;;;;;;;;5061712;28;51072;-68
2021/08/10 07:13:56;;;;;;;;;14.75;13.50;;;;;;;;5072393;27;50928;-68
2021/08/10 07:16:21;;;;;;;;;7.67;7.67;;;;;;;;5072812;27;50950;-68
2021/08/10 07:18:47;;;;;;;;;8.33;7.67;;;;;;;;5072434;27;51199;-67
2021/08/10 07:21:12;;;;;;;;;7.00;7.00;;;;;;;;5072888;27;51154;-68
2021/08/10 07:23:38;;;;;;;;;8.00;6.33;;;;;;;;5072398;28;51911;-68
2021/08/10 07:26:03;;;;;;;;;6.00;6.00;;;;;;;;5072862;27;50883;-68
2021/08/10 07:28:28;;;;;;;;;7.00;7.00;;;;;;;;5071356;28;50871;-68
2021/08/10 07:30:53;;;;;;;;;9.00;9.00;;;;;;;;5072781;28;51084;-67
2021/08/10 07:33:18;;;;;;;;;7.00;7.00;;;;;;;;5071748;27;51096;-68
2021/08/10 07:35:44;;;;;;;;;8.33;7.67;;;;;;;;5070961;28;51020;-68
2021/08/10 07:38:09;;;;;;;;;8.33;7.00;;;;;;;;5072403;27;50962;-68
2021/08/10 07:40:34;;;;;;;;;6.00;6.00;;;;;;;;5072846;27;51060;-68
2021/08/10 07:42:59;;;;;;;;;7.33;7.33;;;;;;;;5072044;28;52220;-68
2021/08/10 07:45:24;;;;;;;;;8.67;7.00;;;;;;;;5072525;27;50985;-66
2021/08/10 07:47:50;;;;;;;;;10.00;9.00;;;;;;;;5072190;27;51061;-68
2021/08/10 07:50:15;;;;;;;;;10.00;9.67;;;;;;;;5072718;27;50875;-68
2021/08/10 07:52:41;;;;;;;;;9.67;9.67;;;;;;;;5071968;28;52216;-68
2021/08/10 07:55:07;;;;;;;;;7.67;7.67;;;;;;;;5072269;27;50904;-68
2021/08/10 07:57:32;;;;;;;;;9.00;8.67;;;;;;;;5070743;28;50976;-67
2021/08/10 07:59:57;;;;;;;;;4.00;4.00;;;;;;;;5073026;27;51093;-67
2021/08/10 08:02:22;;;;;;;;;7.67;7.00;;;;;;;;5071985;27;52397;-67
2021/08/10 08:04:48;;;;;;;;;9.67;9.00;;;;;;;;5071828;27;51083;-68
2021/08/10 08:07:13;;;;;;;;;9.00;8.00;;;;;;;;5072006;27;50931;-67
2021/08/10 08:09:38;;;;;;;;;9.00;8.67;;;;;;;;5072719;27;50914;-67
2021/08/10 08:12:03;;;;;;;;;11.33;8.33;;;;;;;;5072009;27;51222;-67
2021/08/10 08:14:29;;;;;;;;;10.33;9.00;;;;;;;;5072212;28;51047;-67
2021/08/10 08:16:54;;;;;;;;;11.67;10.67;;;;;;;;5075926;27;51029;-67
2021/08/10 08:19:20;;;;;;;;;7.00;6.00;;;;;;;;5075661;27;50914;-67
2021/08/10 08:21:45;;;;;;;;;8.33;7.33;;;;;;;;5075307;27;51200;-67
2021/08/10 08:24:10;;;;;;;;;7.00;7.00;;;;;;;;5074330;28;51151;-66
2021/08/10 08:26:35;;;;;;;;;6.33;6.33;;;;;;;;5074137;28;51297;-68
2021/08/10 08:29:00;;;;;;;;;7.67;7.00;;;;;;;;5075735;27;50873;-67
2021/08/10 08:31:26;;;;;;;;;9.00;6.33;;;;;;;;5074887;27;52066;-68
2021/08/10 08:33:51;;;;;;;;;7.33;7.33;;;;;;;;5074926;27;51032;-68
2021/08/10 08:36:16;;;;;;;;;7.00;7.00;;;;;;;;5075699;27;51052;-68
2021/08/10 08:38:42;;;;;;;;;9.67;8.33;;;;;;;;5075402;27;51341;-68
2021/08/10 08:41:08;;;;;;;;;8.33;8.00;;;;;;;;5074760;28;52399;-68
2021/08/10 08:43:33;;;;;;;;;9.33;9.33;;;;;;;;5075015;27;50992;-68
2021/08/10 08:45:59;;;;;;;;;9.00;8.33;;;;;;;;5075045;27;51113;-68
2021/08/10 08:48:25;;;;;;;;;9.33;9.33;;;;;;;;5073958;28;51302;-67
2021/08/10 08:50:51;;;;;;;;;8.33;8.00;;;;;;;;5074715;27;51124;-66
2021/08/10 08:53:16;;;;;;;;;8.00;7.00;;;;;;;;5074989;27;51118;-68
2021/08/10 08:55:43;;;;;;;;;7.67;7.00;;;;;;;;5074996;27;51245;-67
2021/08/10 08:58:08;;;;;;;;;8.00;8.00;;;;;;;;5073970;28;51144;-67
2021/08/10 09:00:33;;;;;;;;;7.00;7.00;;;;;;;;5074748;27;51096;-66
2021/08/10 09:02:59;;;;;;;;;4.67;4.67;;;;;;;;5074585;28;51009;-67
2021/08/10 09:05:24;;;;;;;;;8.00;7.00;;;;;;;;5074504;27;51061;-67
2021/08/10 09:07:49;;;;;;;;;8.00;8.00;;;;;;;;5074628;27;51484;-68
2021/08/10 09:10:18;;;;;;;;;6.00;6.00;;;;;;;;5069092;27;52952;-66
2021/08/10 09:12:47;;;;;;;;;5.33;4.00;;;;;;;;5074298;28;50984;-66
2021/08/10 09:15:30;;;;;;;;;6.67;6.33;;;;;;;;5074145;27;51246;-67
2021/08/10 09:17:58;;;;;;;;;5.67;5.33;;;;;;;;5074366;28;51354;-67
2021/08/10 09:20:23;;;;;;;;;7.00;6.00;;;;;;;;5074072;27;52059;-65
2021/08/10 09:22:55;;;;;;;;;8.33;8.00;;;;;;;;5073970;27;50958;-66
2021/08/10 09:25:21;;;;;;;;;7.00;7.00;;;;;;;;5073438;27;50995;-66
2021/08/10 09:27:46;;;;;;;;;8.00;7.00;;;;;;;;5074377;27;51301;-66
2021/08/10 09:30:34;;;;;;;;;5.00;5.00;;;;;;;;5074199;28;51036;-66
2021/08/10 09:33:00;;;;;;;;;4.33;4.00;;;;;;;;5073713;27;51094;-66
2021/08/10 09:35:38;;;;;;;;;6.00;6.00;;;;;;;;5072490;28;51121;-66
2021/08/10 09:38:04;;;;;;;;;6.67;6.00;;;;;;;;5074181;28;51270;-68
2021/08/10 09:40:32;;;;;;;;;6.33;5.00;;;;;;;;5073810;27;52190;-66
2021/08/10 09:43:17;;;;;;;;;2.67;2.67;;;;;;;;5073931;27;51131;-68
2021/08/10 09:45:43;;;;;;;;;4.00;4.00;;;;;;;;5074156;27;51050;-66
2021/08/10 09:48:12;;;;;;;;;5.00;4.67;;;;;;;;5073741;27;50898;-66
2021/08/10 09:50:37;;;;;;;;;7.00;6.67;;;;;;;;5073769;27;50986;-68
2021/08/10 09:53:19;;;;;;;;;5.00;4.33;;;;;;;;5073534;27;51195;-66
2021/08/10 09:56:04;;;;;;;;;5.67;4.67;;;;;;;;5074349;27;51192;-67
2021/08/10 09:58:30;;;;;;;;;5.00;5.00;;;;;;;;5072649;28;51441;-67
2021/08/10 10:01:00;;;;;;;;;8.67;8.00;;;;;;;;5073723;28;51118;-67
2021/08/10 10:03:26;;;;;;;;;6.67;6.67;;;;;;;;5073740;27;50878;-66
2021/08/10 10:05:52;;;;;;;;;4.00;4.00;;;;;;;;5073442;27;51199;-66
2021/08/10 10:08:18;;;;;;;;;5.00;5.00;;;;;;;;5073955;27;51158;-66
2021/08/10 10:10:51;;;;;;;;;5.33;5.00;;;;;;;;5073273;27;51961;-66
2021/08/10 10:13:16;;;;;;;;;4.00;4.00;;;;;;;;5074357;27;51180;-66
2021/08/10 10:15:42;;;;;;;;;4.00;4.00;;;;;;;;5074134;28;51020;-66
2021/08/10 10:18:08;;;;;;;;;4.00;4.00;;;;;;;;5073818;27;51094;-65
2021/08/10 10:20:37;;;;;;;;;3.00;3.00;;;;;;;;5073359;27;51032;-65
2021/08/10 10:23:04;;;;;;;;;4.00;3.67;;;;;;;;5073638;27;50989;-66
2021/08/10 10:25:30;;;;;;;;;4.00;4.00;;;;;;;;5073475;27;51073;-66
2021/08/10 10:27:56;;;;;;;;;3.00;3.00;;;;;;;;5073736;27;50978;-66
2021/08/10 10:30:21;;;;;;;;;4.33;4.33;;;;;;;;5072689;27;51766;-67
2021/08/10 10:32:46;;;;;;;;;4.33;4.33;;;;;;;;5073237;27;51096;-65
2021/08/10 10:35:12;;;;;;;;;4.00;4.00;;;;;;;;5073379;27;50982;-66
2021/08/10 10:37:38;;;;;;;;;6.00;6.00;;;;;;;;5073083;27;50968;-66
2021/08/10 10:40:05;;;;;;;;;6.00;6.00;;;;;;;;5073115;27;52166;-66
2021/08/10 10:42:31;;;;;;;;;3.00;3.00;;;;;;;;5071788;28;51110;-66
2021/08/10 10:44:57;;;;;;;;;5.33;5.33;;;;;;;;5073142;27;50918;-66
2021/08/10 10:47:25;;;;;;;;;6.00;4.00;;;;;;;;5073216;27;50914;-66
2021/08/10 10:49:56;;;;;;;;;2.67;2.67;;;;;;;;5072267;27;52874;-65
2021/08/10 10:52:22;;;;;;;;;6.33;5.33;;;;;;;;5072584;27;51086;-66
2021/08/10 10:54:47;;;;;;;;;5.00;4.67;;;;;;;;5072308;27;50867;-65
2021/08/10 10:57:31;;;;;;;;;5.00;5.00;;;;;;;;5072886;27;50845;-66
2021/08/10 10:59:57;;;;;;;;;3.67;3.00;;;;;;;;5072565;28;51371;-66
2021/08/10 11:02:25;;;;;;;;;5.67;4.33;;;;;;;;5072558;28;50973;-66
2021/08/10 11:05:05;;;;;;;;;4.00;4.00;;;;;;;;5072909;27;51154;-66
2021/08/10 11:07:35;;;;;;;;;2.33;2.00;;;;;;;;5072772;27;51080;-67
2021/08/10 11:10:00;;;;;;;;;8.33;7.33;;;;;;;;5072380;27;50956;-66
2021/08/10 11:12:45;;;;;;;;;5.33;4.00;;;;;;;;5056886;27;51333;-66
2021/08/10 11:15:11;;;;;;;;;7.00;7.00;;;;;;;;5072740;28;50967;-65
2021/08/10 11:17:36;;;;;;;;;5.67;5.67;;;;;;;;5072480;27;51056;-65
2021/08/10 11:20:21;;;;;;;;;4.00;4.00;;;;;;;;5070876;28;52657;-66
2021/08/10 11:22:46;;;;;;;;;5.67;5.00;;;;;;;;5072131;27;51095;-67
2021/08/10 11:25:23;;;;;;;;;3.33;3.33;;;;;;;;5072178;27;50982;-66
2021/08/10 11:27:48;;;;;;;;;3.33;3.33;;;;;;;;5072680;27;51417;-66
2021/08/10 11:30:20;;;;;;;;;3.00;3.00;;;;;;;;5072019;27;51063;-66
2021/08/10 11:32:46;;;;;;;;;6.33;6.33;;;;;;;;5070544;28;51044;-66
2021/08/10 11:35:20;;;;;;;;;6.00;6.00;;;;;;;;5071236;28;51173;-66
2021/08/10 11:38:04;;;;;;;;;3.33;3.33;;;;;;;;5072136;28;51358;-65
2021/08/10 11:40:36;;;;;;;;;3.00;3.00;;;;;;;;5059524;28;52076;-67
2021/08/10 11:43:01;;;;;;;;;4.00;4.00;;;;;;;;5071979;27;51156;-66
2021/08/10 11:45:34;;;;;;;;;4.33;4.00;;;;;;;;5072345;27;51012;-67
2021/08/10 11:48:00;;;;;;;;;2.67;2.67;;;;;;;;5072395;28;51224;-66
2021/08/10 11:50:29;;;;;;;;;3.00;2.67;;;;;;;;5071000;28;51734;-67
2021/08/10 11:52:55;;;;;;;;;4.33;3.33;;;;;;;;5070963;28;51112;-67
2021/08/10 11:55:26;;;;;;;;;4.00;4.00;;;;;;;;5072672;27;50981;-64
2021/08/10 11:57:53;;;;;;;;;3.00;3.00;;;;;;;;5072612;27;50840;-66
2021/08/10 12:00:20;;;;;;;;;4.67;4.67;;;;;;;;5071486;27;52933;-66
2021/08/10 12:02:46;;;;;;;;;4.00;4.00;;;;;;;;5071140;27;50962;-65
2021/08/10 12:05:12;;;;;;;;;3.00;3.00;;;;;;;;5071446;27;51072;-66
2021/08/10 12:07:50;;;;;;;;;4.00;4.00;;;;;;;;5071488;27;51289;-66
2021/08/10 12:10:23;;;;;;;;;3.33;3.00;;;;;;;;5071460;27;51047;-65
2021/08/10 12:12:48;;;;;;;;;2.67;2.67;;;;;;;;5071548;27;51248;-67
2021/08/10 12:15:44;;;;;;;;;2.33;2.33;;;;;;;;5071694;27;51044;-67
2021/08/10 12:18:10;;;;;;;;;3.00;3.00;;;;;;;;5066432;27;51338;-66
2021/08/10 12:20:35;;;;;;;;;5.00;4.00;;;;;;;;5071318;27;52176;-66
2021/08/10 12:23:02;;;;;;;;;2.67;2.00;;;;;;;;5070049;28;51124;-66
2021/08/10 12:25:27;;;;;;;;;3.00;3.00;;;;;;;;5071007;27;50906;-66
2021/08/10 12:28:03;;;;;;;;;4.00;3.00;;;;;;;;5071700;27;51278;-67
2021/08/10 12:30:30;;;;;;;;;3.67;3.00;;;;;;;;5070025;28;51144;-66
2021/08/10 12:33:14;;;;;;;;;2.00;2.00;;;;;;;;5071124;28;51033;-65
2021/08/10 12:35:39;;;;;;;;;2.67;2.67;;;;;;;;5071866;28;50996;-66
2021/08/10 12:38:05;;;;;;;;;2.00;2.00;;;;;;;;5071658;27;51017;-67
2021/08/10 12:40:31;;;;;;;;;1.33;1.00;;;;;;;;5070006;27;52634;-67
2021/08/10 12:42:56;;;;;;;;;2.00;1.00;;;;;;;;5070160;28;51032;-66
2021/08/10 12:45:22;;;;;;;;;3.67;2.00;;;;;;;;5070326;28;51168;-67
2021/08/10 12:47:47;;;;;;;;;3.00;3.00;;;;;;;;5071288;27;50912;-65
2021/08/10 12:50:28;;;;;;;;;5.00;4.33;;;;;;;;5070958;27;51013;-66
2021/08/10 12:52:54;;;;;;;;;3.67;3.67;;;;;;;;5069948;27;50998;-66
2021/08/10 12:55:20;;;;;;;;;4.33;3.33;;;;;;;;5071410;27;50950;-65
2021/08/10 12:57:47;;;;;;;;;2.00;2.00;;;;;;;;5071176;28;51369;-66
2021/08/10 13:00:13;;;;;;;;;1.67;1.67;;;;;;;;5071834;27;52945;-67
2021/08/10 13:02:39;;;;;;;;;5.67;5.33;;;;;;;;5074065;27;51035;-67
2021/08/10 13:05:06;;;;;;;;;1.33;1.33;;;;;;;;5074252;27;51145;-67
2021/08/10 13:07:31;;;;;;;;;2.33;2.33;;;;;;;;5074640;27;50846;-65
2021/08/10 13:09:58;;;;;;;;;2.33;2.33;;;;;;;;5073863;28;51693;-66
2021/08/10 13:12:24;;;;;;;;;3.00;3.00;;;;;;;;5071719;27;50943;-67
2021/08/10 13:15:08;;;;;;;;;2.67;2.67;;;;;;;;5074515;28;51057;-66
2021/08/10 13:17:36;;;;;;;;;2.00;2.00;;;;;;;;5073974;27;51349;-67
2021/08/10 13:20:03;;;;;;;;;2.00;2.00;;;;;;;;5072479;28;52858;-67
2021/08/10 13:22:40;;;;;;;;;2.00;2.00;;;;;;;;5073876;27;51072;-66
2021/08/10 13:25:16;;;;;;;;;1.00;1.00;;;;;;;;5073883;27;51002;-67
2021/08/10 13:27:41;;;;;;;;;2.33;2.33;;;;;;;;5072503;27;51265;-66
2021/08/10 13:30:26;;;;;;;;;2.00;2.00;;;;;;;;5073261;27;51085;-66
2021/08/10 13:33:06;;;;;;;;;2.67;2.00;;;;;;;;5072806;28;51086;-65
2021/08/10 13:35:31;;;;;;;;;1.33;1.33;;;;;;;;5073722;27;50895;-66
2021/08/10 13:37:57;;;;;;;;;1.67;1.67;;;;;;;;5073217;27;51034;-66
2021/08/10 13:40:22;;;;;;;;;1.00;1.00;;;;;;;;5071447;28;53603;-66
2021/08/10 13:42:48;;;;;;;;;2.33;2.00;;;;;;;;5072775;27;50887;-68
2021/08/10 13:45:13;;;;;;;;;1.33;1.33;;;;;;;;5072846;27;51001;-66
2021/08/10 13:47:38;;;;;;;;;0.00;0.00;;;;;;;;5073096;27;50929;-67
2021/08/10 13:50:04;;;;;;;;;2.00;2.00;;;;;;;;5072952;27;51461;-66
2021/08/10 13:52:29;;;;;;;;;2.00;2.00;;;;;;;;5073593;27;51159;-67
2021/08/10 13:54:54;;;;;;;;;2.33;2.00;;;;;;;;5073429;27;50954;-66
2021/08/10 13:57:23;;;;;;;;;2.00;2.00;;;;;;;;5073354;27;50938;-66
2021/08/10 13:59:48;;;;;;;;;3.33;3.33;;;;;;;;5072587;28;51748;-65
2021/08/10 14:02:13;;;;;;;;;1.33;1.33;;;;;;;;5071769;28;51099;-67
2021/08/10 14:04:39;;;;;;;;;2.00;2.00;;;;;;;;5072471;27;51092;-67
2021/08/10 14:07:04;;;;;;;;;2.00;2.00;;;;;;;;5072944;28;51502;-67
2021/08/10 14:09:29;;;;;;;;;4.67;4.67;;;;;;;;5070893;28;51116;-67
2021/08/10 14:11:55;;;;;;;;;0.67;0.67;;;;;;;;5071817;28;50976;-67
2021/08/10 14:14:20;;;;;;;;;2.67;2.67;;;;;;;;5072683;27;51292;-67
2021/08/10 14:16:45;;;;;;;;;1.00;1.00;;;;;;;;5071668;28;50891;-66
2021/08/10 14:19:11;;;;;;;;;1.00;1.00;;;;;;;;5072678;28;51083;-65
2021/08/10 14:21:36;;;;;;;;;1.67;1.67;;;;;;;;5073093;27;51322;-68
2021/08/10 14:24:01;;;;;;;;;2.00;2.00;;;;;;;;5072666;27;51212;-66
2021/08/10 14:26:26;;;;;;;;;0.67;0.67;;;;;;;;5071926;28;51006;-66
2021/08/10 14:28:52;;;;;;;;;0.00;0.00;;;;;;;;5072634;27;52102;-66
2021/08/10 14:31:17;;;;;;;;;1.67;1.00;;;;;;;;5072426;28;51042;-66
2021/08/10 14:33:42;;;;;;;;;2.00;1.00;;;;;;;;5072208;27;51293;-67
2021/08/10 14:36:08;;;;;;;;;1.00;1.00;;;;;;;;5072302;27;51174;-65
2021/08/10 14:38:33;;;;;;;;;0.00;0.00;;;;;;;;5072503;27;51021;-66
2021/08/10 14:40:59;;;;;;;;;3.00;2.33;;;;;;;;5071128;28;51243;-65